sensor_id;sensor_type;location;lat;lon;timestamp;P1;durP1;ratioP1;P2;durP2;ratioP2
54157;SDS011;40065;49.894;10.358;2023-05-24T00:04:51;7.90;;;3.30;;
54157;SDS011;40065;49.894;10.358;2023-05-24T00:09:53;7.78;;;3.70;;
54157;SDS011;40065;49.894;10.358;2023-05-24T00:14:55;7.45;;;3.92;;
54157;SDS011;40065;49.894;10.358;2023-05-24T00:19:59;10.00;;;3.80;;
54157;SDS011;40065;49.894;10.358;2023-05-24T00:25:01;7.97;;;3.78;;
54157;SDS011;40065;49.894;10.358;2023-05-24T00:30:03;7.15;;;3.88;;
54157;SDS011;40065;49.894;10.358;2023-05-24T00:35:06;4.05;;;2.65;;
54157;SDS011;40065;49.894;10.358;2023-05-24T00:40:08;7.78;;;3.70;;
54157;SDS011;40065;49.894;10.358;2023-05-24T00:45:10;7.40;;;3.67;;
54157;SDS011;40065;49.894;10.358;2023-05-24T00:50:13;8.85;;;3.83;;
54157;SDS011;40065;49.894;10.358;2023-05-24T00:55:17;6.93;;;3.88;;
54157;SDS011;40065;49.894;10.358;2023-05-24T01:00:19;8.82;;;3.65;;
54157;SDS011;40065;49.894;10.358;2023-05-24T01:05:23;9.20;;;3.38;;
54157;SDS011;40065;49.894;10.358;2023-05-24T01:10:30;7.95;;;3.75;;
54157;SDS011;40065;49.894;10.358;2023-05-24T01:15:46;8.23;;;3.42;;
54157;SDS011;40065;49.894;10.358;2023-05-24T01:26:26;7.50;;;3.50;;
54157;SDS011;40065;49.894;10.358;2023-05-24T01:31:39;10.25;;;3.92;;
54157;SDS011;40065;49.894;10.358;2023-05-24T01:36:41;4.90;;;2.78;;
54157;SDS011;40065;49.894;10.358;2023-05-24T01:47:04;7.57;;;3.42;;
54157;SDS011;40065;49.894;10.358;2023-05-24T01:52:26;9.05;;;3.72;;
54157;SDS011;40065;49.894;10.358;2023-05-24T01:57:31;7.72;;;3.05;;
54157;SDS011;40065;49.894;10.358;2023-05-24T02:07:38;8.43;;;3.10;;
54157;SDS011;40065;49.894;10.358;2023-05-24T02:12:42;8.23;;;3.53;;
54157;SDS011;40065;49.894;10.358;2023-05-24T02:17:45;7.60;;;3.38;;
54157;SDS011;40065;49.894;10.358;2023-05-24T02:22:48;9.70;;;3.78;;
54157;SDS011;40065;49.894;10.358;2023-05-24T02:27:51;7.97;;;2.90;;
54157;SDS011;40065;49.894;10.358;2023-05-24T02:32:52;8.98;;;3.30;;
54157;SDS011;40065;49.894;10.358;2023-05-24T02:37:54;8.27;;;3.50;;
54157;SDS011;40065;49.894;10.358;2023-05-24T02:42:58;9.52;;;3.13;;
54157;SDS011;40065;49.894;10.358;2023-05-24T02:48:00;12.30;;;3.75;;
54157;SDS011;40065;49.894;10.358;2023-05-24T02:53:02;7.30;;;3.28;;
54157;SDS011;40065;49.894;10.358;2023-05-24T02:58:04;9.52;;;4.35;;
54157;SDS011;40065;49.894;10.358;2023-05-24T03:03:07;6.07;;;2.65;;
54157;SDS011;40065;49.894;10.358;2023-05-24T03:08:09;10.73;;;3.40;;
54157;SDS011;40065;49.894;10.358;2023-05-24T03:13:11;7.13;;;2.83;;
54157;SDS011;40065;49.894;10.358;2023-05-24T03:18:13;10.38;;;3.00;;
54157;SDS011;40065;49.894;10.358;2023-05-24T03:23:16;8.77;;;3.03;;
54157;SDS011;40065;49.894;10.358;2023-05-24T03:28:18;9.85;;;3.50;;
54157;SDS011;40065;49.894;10.358;2023-05-24T03:33:22;10.10;;;3.20;;
54157;SDS011;40065;49.894;10.358;2023-05-24T03:38:24;8.32;;;3.40;;
54157;SDS011;40065;49.894;10.358;2023-05-24T03:43:26;6.25;;;2.50;;
54157;SDS011;40065;49.894;10.358;2023-05-24T03:48:31;8.70;;;2.83;;
54157;SDS011;40065;49.894;10.358;2023-05-24T03:53:32;10.30;;;3.20;;
54157;SDS011;40065;49.894;10.358;2023-05-24T03:58:34;7.28;;;2.83;;
54157;SDS011;40065;49.894;10.358;2023-05-24T04:03:36;7.72;;;3.03;;
54157;SDS011;40065;49.894;10.358;2023-05-24T04:08:39;10.25;;;3.22;;
54157;SDS011;40065;49.894;10.358;2023-05-24T04:13:42;14.45;;;3.50;;
54157;SDS011;40065;49.894;10.358;2023-05-24T04:18:44;9.63;;;3.00;;
54157;SDS011;40065;49.894;10.358;2023-05-24T04:23:46;7.88;;;2.83;;
54157;SDS011;40065;49.894;10.358;2023-05-24T04:28:48;9.48;;;2.92;;
54157;SDS011;40065;49.894;10.358;2023-05-24T04:33:50;7.38;;;3.03;;
54157;SDS011;40065;49.894;10.358;2023-05-24T04:38:54;8.45;;;3.05;;
54157;SDS011;40065;49.894;10.358;2023-05-24T04:43:57;9.18;;;2.65;;
54157;SDS011;40065;49.894;10.358;2023-05-24T04:49:02;10.65;;;3.22;;
54157;SDS011;40065;49.894;10.358;2023-05-24T04:54:06;9.30;;;2.87;;
54157;SDS011;40065;49.894;10.358;2023-05-24T04:59:11;10.15;;;3.17;;
54157;SDS011;40065;49.894;10.358;2023-05-24T05:04:13;10.38;;;3.00;;
54157;SDS011;40065;49.894;10.358;2023-05-24T05:09:15;13.80;;;3.03;;
54157;SDS011;40065;49.894;10.358;2023-05-24T05:14:17;8.85;;;2.75;;
54157;SDS011;40065;49.894;10.358;2023-05-24T05:19:19;8.75;;;3.10;;
54157;SDS011;40065;49.894;10.358;2023-05-24T05:24:21;10.77;;;3.03;;
54157;SDS011;40065;49.894;10.358;2023-05-24T05:29:23;7.82;;;2.88;;
54157;SDS011;40065;49.894;10.358;2023-05-24T05:34:25;13.13;;;3.17;;
54157;SDS011;40065;49.894;10.358;2023-05-24T05:39:27;12.02;;;2.70;;
54157;SDS011;40065;49.894;10.358;2023-05-24T05:44:29;9.52;;;2.80;;
54157;SDS011;40065;49.894;10.358;2023-05-24T05:49:30;12.13;;;2.90;;
54157;SDS011;40065;49.894;10.358;2023-05-24T05:54:36;10.95;;;2.97;;
54157;SDS011;40065;49.894;10.358;2023-05-24T05:59:38;10.13;;;2.28;;
54157;SDS011;40065;49.894;10.358;2023-05-24T06:04:40;12.23;;;2.75;;
54157;SDS011;40065;49.894;10.358;2023-05-24T06:09:41;9.73;;;2.10;;
54157;SDS011;40065;49.894;10.358;2023-05-24T06:14:43;7.95;;;1.83;;
54157;SDS011;40065;49.894;10.358;2023-05-24T06:19:45;11.00;;;2.15;;
54157;SDS011;40065;49.894;10.358;2023-05-24T06:24:47;11.35;;;2.65;;
54157;SDS011;40065;49.894;10.358;2023-05-24T06:29:49;9.02;;;2.20;;
54157;SDS011;40065;49.894;10.358;2023-05-24T06:34:51;11.25;;;2.13;;
54157;SDS011;40065;49.894;10.358;2023-05-24T06:39:53;9.82;;;2.30;;
54157;SDS011;40065;49.894;10.358;2023-05-24T06:44:55;11.68;;;2.92;;
54157;SDS011;40065;49.894;10.358;2023-05-24T06:49:57;11.07;;;2.33;;
54157;SDS011;40065;49.894;10.358;2023-05-24T06:54:58;10.07;;;2.20;;
54157;SDS011;40065;49.894;10.358;2023-05-24T07:00:00;12.65;;;2.85;;
54157;SDS011;40065;49.894;10.358;2023-05-24T07:05:03;7.95;;;2.20;;
54157;SDS011;40065;49.894;10.358;2023-05-24T07:10:07;8.88;;;2.00;;
54157;SDS011;40065;49.894;10.358;2023-05-24T07:15:10;9.77;;;2.97;;
54157;SDS011;40065;49.894;10.358;2023-05-24T07:20:12;10.90;;;2.40;;
54157;SDS011;40065;49.894;10.358;2023-05-24T07:25:14;5.95;;;2.30;;
54157;SDS011;40065;49.894;10.358;2023-05-24T07:30:16;10.55;;;2.65;;
54157;SDS011;40065;49.894;10.358;2023-05-24T07:35:32;9.05;;;1.90;;
54157;SDS011;40065;49.894;10.358;2023-05-24T07:40:34;7.03;;;2.03;;
54157;SDS011;40065;49.894;10.358;2023-05-24T07:45:35;8.23;;;1.98;;
54157;SDS011;40065;49.894;10.358;2023-05-24T07:50:37;9.77;;;1.92;;
54157;SDS011;40065;49.894;10.358;2023-05-24T07:55:39;10.68;;;2.40;;
54157;SDS011;40065;49.894;10.358;2023-05-24T08:00:41;7.40;;;1.85;;
54157;SDS011;40065;49.894;10.358;2023-05-24T08:05:43;10.93;;;2.10;;
54157;SDS011;40065;49.894;10.358;2023-05-24T08:10:45;7.07;;;1.83;;
54157;SDS011;40065;49.894;10.358;2023-05-24T08:15:47;7.22;;;1.50;;
54157;SDS011;40065;49.894;10.358;2023-05-24T08:20:49;7.85;;;2.17;;
54157;SDS011;40065;49.894;10.358;2023-05-24T08:25:52;7.13;;;1.80;;
54157;SDS011;40065;49.894;10.358;2023-05-24T08:30:54;6.93;;;2.00;;
54157;SDS011;40065;49.894;10.358;2023-05-24T08:35:56;8.05;;;2.10;;
54157;SDS011;40065;49.894;10.358;2023-05-24T08:40:58;6.28;;;1.60;;
54157;SDS011;40065;49.894;10.358;2023-05-24T08:46:00;6.10;;;1.73;;
54157;SDS011;40065;49.894;10.358;2023-05-24T08:51:04;6.97;;;1.60;;
54157;SDS011;40065;49.894;10.358;2023-05-24T08:56:06;4.55;;;1.35;;
54157;SDS011;40065;49.894;10.358;2023-05-24T09:01:12;6.95;;;1.95;;
54157;SDS011;40065;49.894;10.358;2023-05-24T09:06:15;6.78;;;1.85;;
54157;SDS011;40065;49.894;10.358;2023-05-24T09:11:18;9.20;;;1.95;;
54157;SDS011;40065;49.894;10.358;2023-05-24T09:16:23;6.65;;;1.77;;
54157;SDS011;40065;49.894;10.358;2023-05-24T09:21:25;7.72;;;1.92;;
54157;SDS011;40065;49.894;10.358;2023-05-24T09:26:27;10.82;;;2.30;;
54157;SDS011;40065;49.894;10.358;2023-05-24T09:31:31;8.50;;;1.80;;
54157;SDS011;40065;49.894;10.358;2023-05-24T09:36:34;8.48;;;1.80;;
54157;SDS011;40065;49.894;10.358;2023-05-24T09:41:37;7.00;;;1.55;;
54157;SDS011;40065;49.894;10.358;2023-05-24T09:46:39;5.38;;;1.80;;
54157;SDS011;40065;49.894;10.358;2023-05-24T09:51:41;6.88;;;1.80;;
54157;SDS011;40065;49.894;10.358;2023-05-24T09:56:43;5.40;;;1.55;;
54157;SDS011;40065;49.894;10.358;2023-05-24T10:06:54;5.75;;;1.40;;
54157;SDS011;40065;49.894;10.358;2023-05-24T10:11:56;8.23;;;1.60;;
54157;SDS011;40065;49.894;10.358;2023-05-24T10:16:58;5.13;;;1.38;;
54157;SDS011;40065;49.894;10.358;2023-05-24T10:22:02;8.80;;;1.92;;
54157;SDS011;40065;49.894;10.358;2023-05-24T10:27:08;9.70;;;1.90;;
54157;SDS011;40065;49.894;10.358;2023-05-24T10:32:15;8.60;;;2.03;;
54157;SDS011;40065;49.894;10.358;2023-05-24T10:37:19;11.88;;;2.55;;
54157;SDS011;40065;49.894;10.358;2023-05-24T10:42:21;9.25;;;2.75;;
54157;SDS011;40065;49.894;10.358;2023-05-24T10:47:24;9.45;;;2.20;;
54157;SDS011;40065;49.894;10.358;2023-05-24T10:52:32;11.38;;;2.42;;
54157;SDS011;40065;49.894;10.358;2023-05-24T10:57:36;14.23;;;2.50;;
54157;SDS011;40065;49.894;10.358;2023-05-24T11:02:38;10.18;;;2.47;;
54157;SDS011;40065;49.894;10.358;2023-05-24T11:07:40;6.65;;;1.92;;
54157;SDS011;40065;49.894;10.358;2023-05-24T11:12:43;9.63;;;2.53;;
54157;SDS011;40065;49.894;10.358;2023-05-24T11:23:16;8.77;;;2.33;;
54157;SDS011;40065;49.894;10.358;2023-05-24T11:28:18;10.52;;;2.47;;
54157;SDS011;40065;49.894;10.358;2023-05-24T11:33:22;10.02;;;2.13;;
54157;SDS011;40065;49.894;10.358;2023-05-24T11:38:24;11.70;;;2.53;;
54157;SDS011;40065;49.894;10.358;2023-05-24T11:43:28;10.23;;;2.33;;
54157;SDS011;40065;49.894;10.358;2023-05-24T11:48:31;14.75;;;2.67;;
54157;SDS011;40065;49.894;10.358;2023-05-24T11:53:33;9.05;;;2.33;;
54157;SDS011;40065;49.894;10.358;2023-05-24T11:58:47;10.48;;;2.33;;
54157;SDS011;40065;49.894;10.358;2023-05-24T12:03:50;8.20;;;2.20;;
54157;SDS011;40065;49.894;10.358;2023-05-24T12:08:56;10.77;;;2.33;;
54157;SDS011;40065;49.894;10.358;2023-05-24T12:13:57;10.48;;;2.25;;
54157;SDS011;40065;49.894;10.358;2023-05-24T12:19:00;8.05;;;2.33;;
54157;SDS011;40065;49.894;10.358;2023-05-24T12:24:16;7.30;;;1.83;;
54157;SDS011;40065;49.894;10.358;2023-05-24T12:29:21;8.85;;;2.35;;
54157;SDS011;40065;49.894;10.358;2023-05-24T12:34:23;7.80;;;2.30;;
54157;SDS011;40065;49.894;10.358;2023-05-24T12:39:26;8.70;;;1.98;;
54157;SDS011;40065;49.894;10.358;2023-05-24T12:44:35;7.78;;;1.92;;
54157;SDS011;40065;49.894;10.358;2023-05-24T12:49:38;7.07;;;2.00;;
54157;SDS011;40065;49.894;10.358;2023-05-24T12:54:40;7.20;;;2.10;;
54157;SDS011;40065;49.894;10.358;2023-05-24T12:59:42;8.50;;;2.13;;
54157;SDS011;40065;49.894;10.358;2023-05-24T13:04:47;7.85;;;2.00;;
54157;SDS011;40065;49.894;10.358;2023-05-24T13:09:49;8.52;;;1.95;;
54157;SDS011;40065;49.894;10.358;2023-05-24T13:14:51;6.68;;;1.70;;
54157;SDS011;40065;49.894;10.358;2023-05-24T13:19:53;6.45;;;2.35;;
54157;SDS011;40065;49.894;10.358;2023-05-24T13:24:55;6.82;;;2.05;;
54157;SDS011;40065;49.894;10.358;2023-05-24T13:29:57;7.25;;;2.05;;
54157;SDS011;40065;49.894;10.358;2023-05-24T13:35:02;4.13;;;1.60;;
54157;SDS011;40065;49.894;10.358;2023-05-24T13:40:07;7.60;;;1.95;;
54157;SDS011;40065;49.894;10.358;2023-05-24T13:45:10;6.32;;;2.00;;
54157;SDS011;40065;49.894;10.358;2023-05-24T13:50:13;5.40;;;1.80;;
54157;SDS011;40065;49.894;10.358;2023-05-24T13:55:15;14.48;;;3.92;;
54157;SDS011;40065;49.894;10.358;2023-05-24T14:00:17;9.63;;;3.25;;
54157;SDS011;40065;49.894;10.358;2023-05-24T14:05:19;8.77;;;2.20;;
54157;SDS011;40065;49.894;10.358;2023-05-24T14:10:28;6.20;;;2.00;;
54157;SDS011;40065;49.894;10.358;2023-05-24T14:15:30;4.40;;;1.90;;
54157;SDS011;40065;49.894;10.358;2023-05-24T14:20:35;6.65;;;2.03;;
54157;SDS011;40065;49.894;10.358;2023-05-24T14:25:38;8.50;;;1.90;;
54157;SDS011;40065;49.894;10.358;2023-05-24T14:35:44;5.82;;;2.00;;
54157;SDS011;40065;49.894;10.358;2023-05-24T14:40:46;6.45;;;1.88;;
54157;SDS011;40065;49.894;10.358;2023-05-24T14:45:49;7.45;;;1.98;;
54157;SDS011;40065;49.894;10.358;2023-05-24T14:50:51;6.28;;;1.70;;
54157;SDS011;40065;49.894;10.358;2023-05-24T14:55:52;8.13;;;1.92;;
54157;SDS011;40065;49.894;10.358;2023-05-24T15:00:54;5.57;;;2.55;;
54157;SDS011;40065;49.894;10.358;2023-05-24T15:05:56;6.18;;;1.80;;
54157;SDS011;40065;49.894;10.358;2023-05-24T15:10:59;6.57;;;1.83;;
54157;SDS011;40065;49.894;10.358;2023-05-24T15:16:01;7.55;;;1.90;;
54157;SDS011;40065;49.894;10.358;2023-05-24T15:21:02;8.85;;;2.05;;
54157;SDS011;40065;49.894;10.358;2023-05-24T15:26:04;10.35;;;2.22;;
54157;SDS011;40065;49.894;10.358;2023-05-24T15:31:06;8.32;;;1.80;;
54157;SDS011;40065;49.894;10.358;2023-05-24T15:36:08;5.43;;;1.95;;
54157;SDS011;40065;49.894;10.358;2023-05-24T15:41:14;5.32;;;1.80;;
54157;SDS011;40065;49.894;10.358;2023-05-24T15:46:16;6.25;;;1.60;;
54157;SDS011;40065;49.894;10.358;2023-05-24T15:51:20;6.82;;;1.98;;
54157;SDS011;40065;49.894;10.358;2023-05-24T15:56:42;7.70;;;1.92;;
54157;SDS011;40065;49.894;10.358;2023-05-24T16:01:44;6.70;;;1.88;;
54157;SDS011;40065;49.894;10.358;2023-05-24T16:06:46;5.65;;;1.85;;
54157;SDS011;40065;49.894;10.358;2023-05-24T16:11:48;7.35;;;2.13;;
54157;SDS011;40065;49.894;10.358;2023-05-24T16:16:50;7.47;;;2.30;;
54157;SDS011;40065;49.894;10.358;2023-05-24T16:21:52;8.23;;;2.08;;
54157;SDS011;40065;49.894;10.358;2023-05-24T16:26:55;7.85;;;2.30;;
54157;SDS011;40065;49.894;10.358;2023-05-24T16:36:59;6.90;;;2.05;;
54157;SDS011;40065;49.894;10.358;2023-05-24T16:42:01;5.75;;;1.77;;
54157;SDS011;40065;49.894;10.358;2023-05-24T16:47:04;7.05;;;2.17;;
54157;SDS011;40065;49.894;10.358;2023-05-24T16:52:06;9.27;;;2.00;;
54157;SDS011;40065;49.894;10.358;2023-05-24T16:57:08;6.97;;;2.40;;
54157;SDS011;40065;49.894;10.358;2023-05-24T17:02:10;6.93;;;2.30;;
54157;SDS011;40065;49.894;10.358;2023-05-24T17:07:12;7.43;;;1.95;;
54157;SDS011;40065;49.894;10.358;2023-05-24T17:12:14;6.60;;;1.85;;
54157;SDS011;40065;49.894;10.358;2023-05-24T17:17:16;6.07;;;1.95;;
54157;SDS011;40065;49.894;10.358;2023-05-24T17:22:18;8.65;;;1.92;;
54157;SDS011;40065;49.894;10.358;2023-05-24T17:27:20;7.70;;;2.20;;
54157;SDS011;40065;49.894;10.358;2023-05-24T17:32:23;7.38;;;2.15;;
54157;SDS011;40065;49.894;10.358;2023-05-24T17:37:24;7.85;;;1.90;;
54157;SDS011;40065;49.894;10.358;2023-05-24T17:42:26;8.02;;;2.05;;
54157;SDS011;40065;49.894;10.358;2023-05-24T17:47:28;7.90;;;1.83;;
54157;SDS011;40065;49.894;10.358;2023-05-24T17:52:30;9.23;;;2.47;;
54157;SDS011;40065;49.894;10.358;2023-05-24T17:57:32;8.60;;;1.77;;
54157;SDS011;40065;49.894;10.358;2023-05-24T18:02:34;8.70;;;2.20;;
54157;SDS011;40065;49.894;10.358;2023-05-24T18:07:36;8.60;;;2.15;;
54157;SDS011;40065;49.894;10.358;2023-05-24T18:12:38;8.40;;;2.35;;
54157;SDS011;40065;49.894;10.358;2023-05-24T18:17:40;6.80;;;2.20;;
54157;SDS011;40065;49.894;10.358;2023-05-24T18:22:42;8.70;;;2.45;;
54157;SDS011;40065;49.894;10.358;2023-05-24T18:27:44;6.97;;;2.10;;
54157;SDS011;40065;49.894;10.358;2023-05-24T18:32:46;10.25;;;2.40;;
54157;SDS011;40065;49.894;10.358;2023-05-24T18:38:05;7.60;;;2.40;;
54157;SDS011;40065;49.894;10.358;2023-05-24T18:43:06;8.02;;;1.80;;
54157;SDS011;40065;49.894;10.358;2023-05-24T18:48:08;8.45;;;2.30;;
54157;SDS011;40065;49.894;10.358;2023-05-24T18:53:10;7.03;;;1.90;;
54157;SDS011;40065;49.894;10.358;2023-05-24T18:58:12;6.47;;;2.13;;
54157;SDS011;40065;49.894;10.358;2023-05-24T19:03:17;12.52;;;2.67;;
54157;SDS011;40065;49.894;10.358;2023-05-24T19:08:19;4.88;;;1.85;;
54157;SDS011;40065;49.894;10.358;2023-05-24T19:13:21;7.25;;;2.25;;
54157;SDS011;40065;49.894;10.358;2023-05-24T19:18:22;7.57;;;2.00;;
54157;SDS011;40065;49.894;10.358;2023-05-24T19:23:24;6.80;;;1.90;;
54157;SDS011;40065;49.894;10.358;2023-05-24T19:28:26;5.38;;;1.92;;
54157;SDS011;40065;49.894;10.358;2023-05-24T19:33:28;6.20;;;1.83;;
54157;SDS011;40065;49.894;10.358;2023-05-24T19:38:30;5.88;;;1.80;;
54157;SDS011;40065;49.894;10.358;2023-05-24T19:43:32;7.63;;;2.22;;
54157;SDS011;40065;49.894;10.358;2023-05-24T19:48:33;5.68;;;1.77;;
54157;SDS011;40065;49.894;10.358;2023-05-24T19:53:35;4.43;;;1.90;;
54157;SDS011;40065;49.894;10.358;2023-05-24T19:58:37;5.45;;;2.03;;
54157;SDS011;40065;49.894;10.358;2023-05-24T20:03:39;7.78;;;2.13;;
54157;SDS011;40065;49.894;10.358;2023-05-24T20:08:43;11.88;;;2.42;;
54157;SDS011;40065;49.894;10.358;2023-05-24T20:13:45;4.88;;;1.88;;
54157;SDS011;40065;49.894;10.358;2023-05-24T20:18:47;8.10;;;2.15;;
54157;SDS011;40065;49.894;10.358;2023-05-24T20:23:49;10.20;;;2.10;;
54157;SDS011;40065;49.894;10.358;2023-05-24T20:28:59;4.28;;;1.73;;
54157;SDS011;40065;49.894;10.358;2023-05-24T20:34:01;8.15;;;2.20;;
54157;SDS011;40065;49.894;10.358;2023-05-24T20:39:02;6.40;;;2.10;;
54157;SDS011;40065;49.894;10.358;2023-05-24T20:44:04;8.30;;;2.03;;
54157;SDS011;40065;49.894;10.358;2023-05-24T20:49:06;6.85;;;2.00;;
54157;SDS011;40065;49.894;10.358;2023-05-24T20:54:08;7.70;;;1.90;;
54157;SDS011;40065;49.894;10.358;2023-05-24T20:59:12;5.40;;;1.80;;
54157;SDS011;40065;49.894;10.358;2023-05-24T21:04:14;5.57;;;1.90;;
54157;SDS011;40065;49.894;10.358;2023-05-24T21:09:16;9.20;;;2.17;;
54157;SDS011;40065;49.894;10.358;2023-05-24T21:14:18;6.25;;;2.00;;
54157;SDS011;40065;49.894;10.358;2023-05-24T21:19:20;6.03;;;1.65;;
54157;SDS011;40065;49.894;10.358;2023-05-24T21:24:22;6.93;;;1.70;;
54157;SDS011;40065;49.894;10.358;2023-05-24T21:29:24;7.97;;;2.38;;
54157;SDS011;40065;49.894;10.358;2023-05-24T21:34:26;7.13;;;2.33;;
54157;SDS011;40065;49.894;10.358;2023-05-24T21:39:28;6.75;;;2.05;;
54157;SDS011;40065;49.894;10.358;2023-05-24T21:44:30;3.97;;;1.80;;
54157;SDS011;40065;49.894;10.358;2023-05-24T21:49:32;5.45;;;2.20;;
54157;SDS011;40065;49.894;10.358;2023-05-24T21:54:33;6.72;;;2.00;;
54157;SDS011;40065;49.894;10.358;2023-05-24T21:59:35;5.28;;;1.73;;
54157;SDS011;40065;49.894;10.358;2023-05-24T22:04:37;5.15;;;2.00;;
54157;SDS011;40065;49.894;10.358;2023-05-24T22:09:39;4.75;;;1.90;;
54157;SDS011;40065;49.894;10.358;2023-05-24T22:14:41;6.20;;;2.63;;
54157;SDS011;40065;49.894;10.358;2023-05-24T22:19:42;6.90;;;2.50;;
54157;SDS011;40065;49.894;10.358;2023-05-24T22:24:44;7.43;;;2.25;;
54157;SDS011;40065;49.894;10.358;2023-05-24T22:34:51;8.38;;;2.17;;
54157;SDS011;40065;49.894;10.358;2023-05-24T22:39:52;8.02;;;2.45;;
54157;SDS011;40065;49.894;10.358;2023-05-24T22:44:54;7.78;;;2.55;;
54157;SDS011;40065;49.894;10.358;2023-05-24T22:49:56;7.22;;;2.65;;
54157;SDS011;40065;49.894;10.358;2023-05-24T22:54:58;7.60;;;2.50;;
54157;SDS011;40065;49.894;10.358;2023-05-24T23:00:03;7.68;;;3.03;;
54157;SDS011;40065;49.894;10.358;2023-05-24T23:05:08;7.18;;;2.67;;
54157;SDS011;40065;49.894;10.358;2023-05-24T23:10:11;6.30;;;2.30;;
54157;SDS011;40065;49.894;10.358;2023-05-24T23:15:13;7.63;;;2.67;;
54157;SDS011;40065;49.894;10.358;2023-05-24T23:20:17;6.22;;;2.25;;
54157;SDS011;40065;49.894;10.358;2023-05-24T23:25:18;6.50;;;2.30;;
54157;SDS011;40065;49.894;10.358;2023-05-24T23:30:20;8.48;;;2.75;;
54157;SDS011;40065;49.894;10.358;2023-05-24T23:35:22;5.65;;;2.13;;
54157;SDS011;40065;49.894;10.358;2023-05-24T23:40:24;7.60;;;2.05;;
54157;SDS011;40065;49.894;10.358;2023-05-24T23:45:28;5.45;;;1.80;;
54157;SDS011;40065;49.894;10.358;2023-05-24T23:50:30;5.50;;;2.00;;
54157;SDS011;40065;49.894;10.358;2023-05-24T23:55:46;4.18;;;2.05;;
